This is the latest recevied weather packets stored in our database for station/object KY4LEX. If no packets are shown the sender has not sent any weather packets the latest 10 day(s).
| Time | Temp. | Humidity | Pressure | Rain* | Wind** | Luminosity | Snow |
|---|---|---|---|---|---|---|---|
| 1778170830 | 15.56° C | 41% | 1021 hPa | 0 mm | - | 697 W/m² | - |
| 1778170526 | 15.56° C | 40% | 1021 hPa | 0 mm | - | 689 W/m² | - |
| 1778170223 | 15.56° C | 39% | 1021.1 hPa | 0 mm | - | 681 W/m² | - |
| 1778169919 | 16.11° C | 37% | 1021.1 hPa | 0 mm | - | 680 W/m² | - |
| 1778169616 | 15.56° C | 40% | 1021 hPa | 0 mm | - | 672 W/m² | - |
| 1778169311 | 15° C | 39% | 1020.9 hPa | 0 mm | - | 664 W/m² | - |
| 1778169009 | 15.56° C | 38% | 1020.9 hPa | 0 mm | - | 654 W/m² | - |
| 1778168705 | 15.56° C | 40% | 1021 hPa | 0 mm | - | 643 W/m² | - |
| 1778168402 | 16.67° C | 41% | 1020.9 hPa | 0 mm | - | 637 W/m² | - |
| 1778168099 | 15° C | 43% | 1020.9 hPa | 0 mm | - | 632 W/m² | - |
| 1778167795 | 16.11° C | 39% | 1020.8 hPa | 0 mm | - | 623 W/m² | - |
| 1778167491 | 15.56° C | 40% | 1020.7 hPa | 0 mm | - | 613 W/m² | - |
| 1778167187 | 15° C | 42% | 1021.1 hPa | 0 mm | - | 605 W/m² | - |
| 1778166884 | 15° C | 43% | 1020.6 hPa | 0 mm | - | 594 W/m² | - |
| 1778166581 | 15° C | 41% | 1020.9 hPa | 0 mm | - | 585 W/m² | - |
| 1778166278 | 14.44° C | 43% | 1020.6 hPa | 0 mm | - | 572 W/m² | - |
| 1778165974 | 14.44° C | 43% | 1020.8 hPa | 0 mm | - | 564 W/m² | - |
| 1778165670 | 14.44° C | 42% | 1020.6 hPa | 0 mm | - | 553 W/m² | - |
| 1778165367 | 13.89° C | 44% | 1020.6 hPa | 0 mm | - | 543 W/m² | - |
| 1778165064 | 13.89° C | 44% | 1020.7 hPa | 0 mm | - | 532 W/m² | - |
| 1778164761 | 13.33° C | 46% | 1020.9 hPa | 0 mm | - | 334 W/m² | - |
| 1778164458 | 13.33° C | 46% | 1020.7 hPa | 0 mm | - | 91 W/m² | - |
| 1778164155 | 13.33° C | 47% | 1020.8 hPa | 0 mm | - | 180 W/m² | - |
| 1778163850 | 13.33° C | 47% | 1020.8 hPa | 0 mm | - | 95 W/m² | - |
| 1778163548 | 12.78° C | 46% | 1020.8 hPa | 0 mm | - | 149 W/m² | - |
* Rain latest hour (hover to see other rain measurements)
** Current wind speed in m/s (hover to see current wind gust speed)